sensor_id;sensor_type;location;lat;lon;timestamp;temperature;humidity
82782;DHT22;72517;47.260;11.422;2024-03-22T00:01:47;9.40;99.90
82782;DHT22;72517;47.260;11.422;2024-03-22T00:04:13;9.40;99.90
82782;DHT22;72517;47.260;11.422;2024-03-22T00:06:42;9.40;99.90
82782;DHT22;72517;47.260;11.422;2024-03-22T00:09:08;9.40;99.90
82782;DHT22;72517;47.260;11.422;2024-03-22T00:11:35;9.40;99.90
82782;DHT22;72517;47.260;11.422;2024-03-22T00:14:02;9.40;99.90
82782;DHT22;72517;47.260;11.422;2024-03-22T00:16:29;9.40;99.90
82782;DHT22;72517;47.260;11.422;2024-03-22T00:18:55;9.50;99.90
82782;DHT22;72517;47.260;11.422;2024-03-22T00:21:22;9.50;99.90
82782;DHT22;72517;47.260;11.422;2024-03-22T00:23:49;9.40;99.90
82782;DHT22;72517;47.260;11.422;2024-03-22T00:26:16;9.40;99.90
82782;DHT22;72517;47.260;11.422;2024-03-22T00:28:42;9.40;99.90
82782;DHT22;72517;47.260;11.422;2024-03-22T00:31:09;9.40;99.90
82782;DHT22;72517;47.260;11.422;2024-03-22T00:33:35;9.40;99.90
82782;DHT22;72517;47.260;11.422;2024-03-22T00:36:02;9.40;99.90
82782;DHT22;72517;47.260;11.422;2024-03-22T00:38:28;9.40;99.90
82782;DHT22;72517;47.260;11.422;2024-03-22T00:40:55;9.40;99.90
82782;DHT22;72517;47.260;11.422;2024-03-22T00:43:21;9.40;99.90
82782;DHT22;72517;47.260;11.422;2024-03-22T00:45:48;9.40;99.90
82782;DHT22;72517;47.260;11.422;2024-03-22T00:48:14;9.40;99.90
82782;DHT22;72517;47.260;11.422;2024-03-22T00:50:41;9.40;99.90
82782;DHT22;72517;47.260;11.422;2024-03-22T00:53:07;9.40;99.90
82782;DHT22;72517;47.260;11.422;2024-03-22T00:55:35;9.30;99.90
82782;DHT22;72517;47.260;11.422;2024-03-22T00:58:01;9.30;99.90
82782;DHT22;72517;47.260;11.422;2024-03-22T01:00:28;9.30;99.90
82782;DHT22;72517;47.260;11.422;2024-03-22T01:02:54;9.30;99.90
82782;DHT22;72517;47.260;11.422;2024-03-22T01:05:21;9.20;99.90
82782;DHT22;72517;47.260;11.422;2024-03-22T01:07:47;9.20;99.90
82782;DHT22;72517;47.260;11.422;2024-03-22T01:10:14;9.20;99.90
82782;DHT22;72517;47.260;11.422;2024-03-22T01:12:40;9.20;99.90
82782;DHT22;72517;47.260;11.422;2024-03-22T01:15:07;9.20;99.90
82782;DHT22;72517;47.260;11.422;2024-03-22T01:17:33;9.20;99.90
82782;DHT22;72517;47.260;11.422;2024-03-22T01:20:01;9.20;99.90
82782;DHT22;72517;47.260;11.422;2024-03-22T01:22:26;9.20;99.90
82782;DHT22;72517;47.260;11.422;2024-03-22T01:24:54;9.20;99.90
82782;DHT22;72517;47.260;11.422;2024-03-22T01:27:20;9.10;99.90
82782;DHT22;72517;47.260;11.422;2024-03-22T01:29:47;9.10;99.90
82782;DHT22;72517;47.260;11.422;2024-03-22T01:32:13;9.10;99.90
82782;DHT22;72517;47.260;11.422;2024-03-22T01:34:40;9.00;99.90
82782;DHT22;72517;47.260;11.422;2024-03-22T01:37:06;9.00;99.90
82782;DHT22;72517;47.260;11.422;2024-03-22T01:39:33;9.00;99.90
82782;DHT22;72517;47.260;11.422;2024-03-22T01:41:59;8.90;99.90
82782;DHT22;72517;47.260;11.422;2024-03-22T01:44:29;8.90;99.90
82782;DHT22;72517;47.260;11.422;2024-03-22T01:46:56;8.90;99.90
82782;DHT22;72517;47.260;11.422;2024-03-22T01:49:25;8.90;99.90
82782;DHT22;72517;47.260;11.422;2024-03-22T01:51:52;8.80;99.90
82782;DHT22;72517;47.260;11.422;2024-03-22T01:54:20;8.90;99.90
82782;DHT22;72517;47.260;11.422;2024-03-22T01:56:46;8.90;99.90
82782;DHT22;72517;47.260;11.422;2024-03-22T01:59:14;8.90;99.90
82782;DHT22;72517;47.260;11.422;2024-03-22T02:01:40;8.90;99.90
82782;DHT22;72517;47.260;11.422;2024-03-22T02:04:07;9.00;99.90
82782;DHT22;72517;47.260;11.422;2024-03-22T02:06:33;9.00;99.90
82782;DHT22;72517;47.260;11.422;2024-03-22T02:09:00;9.00;99.90
82782;DHT22;72517;47.260;11.422;2024-03-22T02:11:26;9.00;99.90
82782;DHT22;72517;47.260;11.422;2024-03-22T02:13:54;9.00;99.90
82782;DHT22;72517;47.260;11.422;2024-03-22T02:16:19;9.00;99.90
82782;DHT22;72517;47.260;11.422;2024-03-22T02:18:46;9.00;99.90
82782;DHT22;72517;47.260;11.422;2024-03-22T02:21:12;9.00;99.90
82782;DHT22;72517;47.260;11.422;2024-03-22T02:23:40;9.00;99.90
82782;DHT22;72517;47.260;11.422;2024-03-22T02:26:06;9.00;99.90
82782;DHT22;72517;47.260;11.422;2024-03-22T02:28:35;9.00;99.90
82782;DHT22;72517;47.260;11.422;2024-03-22T02:31:04;8.90;99.90
82782;DHT22;72517;47.260;11.422;2024-03-22T02:33:31;9.00;99.90
82782;DHT22;72517;47.260;11.422;2024-03-22T02:35:57;9.00;99.90
82782;DHT22;72517;47.260;11.422;2024-03-22T02:38:24;9.00;99.90
82782;DHT22;72517;47.260;11.422;2024-03-22T02:40:51;9.00;99.90
82782;DHT22;72517;47.260;11.422;2024-03-22T02:43:18;8.90;99.90
82782;DHT22;72517;47.260;11.422;2024-03-22T02:45:44;9.00;99.90
82782;DHT22;72517;47.260;11.422;2024-03-22T02:48:12;9.10;99.90
82782;DHT22;72517;47.260;11.422;2024-03-22T02:50:38;9.10;99.90
82782;DHT22;72517;47.260;11.422;2024-03-22T02:53:06;9.10;99.90
82782;DHT22;72517;47.260;11.422;2024-03-22T02:55:41;9.10;99.90
82782;DHT22;72517;47.260;11.422;2024-03-22T02:58:08;9.20;99.90
82782;DHT22;72517;47.260;11.422;2024-03-22T03:00:38;9.20;99.90
82782;DHT22;72517;47.260;11.422;2024-03-22T03:03:06;9.20;99.90
82782;DHT22;72517;47.260;11.422;2024-03-22T03:05:32;9.20;99.90
82782;DHT22;72517;47.260;11.422;2024-03-22T03:07:59;9.20;99.90
82782;DHT22;72517;47.260;11.422;2024-03-22T03:10:24;9.20;99.90
82782;DHT22;72517;47.260;11.422;2024-03-22T03:12:53;9.10;99.90
82782;DHT22;72517;47.260;11.422;2024-03-22T03:15:19;9.10;99.90
82782;DHT22;72517;47.260;11.422;2024-03-22T03:17:46;9.00;99.90
82782;DHT22;72517;47.260;11.422;2024-03-22T03:20:12;9.00;99.90
82782;DHT22;72517;47.260;11.422;2024-03-22T03:22:40;9.00;99.90
82782;DHT22;72517;47.260;11.422;2024-03-22T03:25:07;9.10;99.90
82782;DHT22;72517;47.260;11.422;2024-03-22T03:27:34;9.00;99.90
82782;DHT22;72517;47.260;11.422;2024-03-22T03:30:00;9.00;99.90
82782;DHT22;72517;47.260;11.422;2024-03-22T03:32:27;9.00;99.90
82782;DHT22;72517;47.260;11.422;2024-03-22T03:34:54;9.00;99.90
82782;DHT22;72517;47.260;11.422;2024-03-22T03:37:21;9.10;99.90
82782;DHT22;72517;47.260;11.422;2024-03-22T03:39:47;9.10;99.90
82782;DHT22;72517;47.260;11.422;2024-03-22T03:42:14;9.00;99.90
82782;DHT22;72517;47.260;11.422;2024-03-22T03:44:39;9.00;99.90
82782;DHT22;72517;47.260;11.422;2024-03-22T03:47:07;9.00;99.90
82782;DHT22;72517;47.260;11.422;2024-03-22T03:49:33;9.00;99.90
82782;DHT22;72517;47.260;11.422;2024-03-22T03:52:00;9.00;99.90
82782;DHT22;72517;47.260;11.422;2024-03-22T03:54:25;9.00;99.90
82782;DHT22;72517;47.260;11.422;2024-03-22T03:56:52;8.90;99.90
82782;DHT22;72517;47.260;11.422;2024-03-22T03:59:18;9.00;99.90
82782;DHT22;72517;47.260;11.422;2024-03-22T04:01:45;8.90;99.90
82782;DHT22;72517;47.260;11.422;2024-03-22T04:04:11;9.00;99.90
82782;DHT22;72517;47.260;11.422;2024-03-22T04:06:38;8.90;99.90
82782;DHT22;72517;47.260;11.422;2024-03-22T04:09:04;8.90;99.90
82782;DHT22;72517;47.260;11.422;2024-03-22T04:11:31;8.90;99.90
82782;DHT22;72517;47.260;11.422;2024-03-22T04:13:57;8.80;99.90
82782;DHT22;72517;47.260;11.422;2024-03-22T04:16:24;8.80;99.90
82782;DHT22;72517;47.260;11.422;2024-03-22T04:18:50;8.80;99.90
82782;DHT22;72517;47.260;11.422;2024-03-22T04:21:17;8.80;99.90
82782;DHT22;72517;47.260;11.422;2024-03-22T04:23:43;8.80;99.90
82782;DHT22;72517;47.260;11.422;2024-03-22T04:26:10;8.70;99.90
82782;DHT22;72517;47.260;11.422;2024-03-22T04:28:36;8.70;99.90
82782;DHT22;72517;47.260;11.422;2024-03-22T04:31:08;8.60;99.90
82782;DHT22;72517;47.260;11.422;2024-03-22T04:33:34;8.60;99.90
82782;DHT22;72517;47.260;11.422;2024-03-22T04:36:02;8.50;99.90
82782;DHT22;72517;47.260;11.422;2024-03-22T04:38:29;8.50;99.90
82782;DHT22;72517;47.260;11.422;2024-03-22T04:40:56;8.40;99.90
82782;DHT22;72517;47.260;11.422;2024-03-22T04:43:24;8.40;99.90
82782;DHT22;72517;47.260;11.422;2024-03-22T04:45:51;8.40;99.90
82782;DHT22;72517;47.260;11.422;2024-03-22T04:48:19;8.30;99.90
82782;DHT22;72517;47.260;11.422;2024-03-22T04:50:47;8.30;99.90
82782;DHT22;72517;47.260;11.422;2024-03-22T04:53:18;8.20;99.90
82782;DHT22;72517;47.260;11.422;2024-03-22T04:55:46;8.20;99.90
82782;DHT22;72517;47.260;11.422;2024-03-22T04:58:17;8.20;99.90
82782;DHT22;72517;47.260;11.422;2024-03-22T05:00:45;8.10;99.90
82782;DHT22;72517;47.260;11.422;2024-03-22T05:03:12;8.00;99.90
82782;DHT22;72517;47.260;11.422;2024-03-22T05:05:40;8.00;99.90
82782;DHT22;72517;47.260;11.422;2024-03-22T05:08:06;7.90;99.90
82782;DHT22;72517;47.260;11.422;2024-03-22T05:10:34;7.90;99.90
82782;DHT22;72517;47.260;11.422;2024-03-22T05:13:00;7.90;99.90
82782;DHT22;72517;47.260;11.422;2024-03-22T05:15:27;7.90;99.90
82782;DHT22;72517;47.260;11.422;2024-03-22T05:17:55;7.90;99.90
82782;DHT22;72517;47.260;11.422;2024-03-22T05:20:22;7.80;99.90
82782;DHT22;72517;47.260;11.422;2024-03-22T05:22:48;7.80;99.90
82782;DHT22;72517;47.260;11.422;2024-03-22T05:25:15;7.80;99.90
82782;DHT22;72517;47.260;11.422;2024-03-22T05:27:42;7.70;99.90
82782;DHT22;72517;47.260;11.422;2024-03-22T05:30:09;7.70;99.90
82782;DHT22;72517;47.260;11.422;2024-03-22T05:32:35;7.80;99.90
82782;DHT22;72517;47.260;11.422;2024-03-22T05:35:02;7.80;99.90
82782;DHT22;72517;47.260;11.422;2024-03-22T05:37:28;7.80;99.90
82782;DHT22;72517;47.260;11.422;2024-03-22T05:39:55;7.80;99.90
82782;DHT22;72517;47.260;11.422;2024-03-22T05:42:21;7.90;99.90
82782;DHT22;72517;47.260;11.422;2024-03-22T05:44:48;7.90;99.90
82782;DHT22;72517;47.260;11.422;2024-03-22T05:47:14;7.90;99.90
82782;DHT22;72517;47.260;11.422;2024-03-22T05:49:41;7.80;99.90
82782;DHT22;72517;47.260;11.422;2024-03-22T05:52:07;7.80;99.90
82782;DHT22;72517;47.260;11.422;2024-03-22T05:54:34;7.90;99.90
82782;DHT22;72517;47.260;11.422;2024-03-22T05:57:02;7.90;99.90
82782;DHT22;72517;47.260;11.422;2024-03-22T05:59:30;8.00;99.90
82782;DHT22;72517;47.260;11.422;2024-03-22T06:01:56;7.90;99.90
82782;DHT22;72517;47.260;11.422;2024-03-22T06:04:23;8.00;99.90
82782;DHT22;72517;47.260;11.422;2024-03-22T06:06:49;8.00;99.90
82782;DHT22;72517;47.260;11.422;2024-03-22T06:09:16;8.10;99.90
82782;DHT22;72517;47.260;11.422;2024-03-22T06:11:50;8.20;99.90
82782;DHT22;72517;47.260;11.422;2024-03-22T06:14:17;8.20;99.90
82782;DHT22;72517;47.260;11.422;2024-03-22T06:16:43;8.30;99.90
82782;DHT22;72517;47.260;11.422;2024-03-22T06:19:10;8.40;99.90
82782;DHT22;72517;47.260;11.422;2024-03-22T06:21:36;8.60;99.90
82782;DHT22;72517;47.260;11.422;2024-03-22T06:24:03;8.80;99.90
82782;DHT22;72517;47.260;11.422;2024-03-22T06:26:29;8.90;99.90
82782;DHT22;72517;47.260;11.422;2024-03-22T06:28:56;9.00;99.90
82782;DHT22;72517;47.260;11.422;2024-03-22T06:31:21;9.10;99.90
82782;DHT22;72517;47.260;11.422;2024-03-22T06:33:48;9.00;99.90
82782;DHT22;72517;47.260;11.422;2024-03-22T06:36:14;9.00;99.90
82782;DHT22;72517;47.260;11.422;2024-03-22T06:38:41;9.10;99.90
82782;DHT22;72517;47.260;11.422;2024-03-22T06:41:07;9.10;99.90
82782;DHT22;72517;47.260;11.422;2024-03-22T06:43:34;9.20;99.90
82782;DHT22;72517;47.260;11.422;2024-03-22T06:46:00;9.30;99.90
82782;DHT22;72517;47.260;11.422;2024-03-22T06:48:26;9.50;99.90
82782;DHT22;72517;47.260;11.422;2024-03-22T06:50:52;9.80;99.90
82782;DHT22;72517;47.260;11.422;2024-03-22T06:53:19;10.00;99.90
82782;DHT22;72517;47.260;11.422;2024-03-22T06:55:45;10.30;99.90
82782;DHT22;72517;47.260;11.422;2024-03-22T06:58:12;10.60;99.90
82782;DHT22;72517;47.260;11.422;2024-03-22T07:00:38;10.80;99.20
82782;DHT22;72517;47.260;11.422;2024-03-22T07:03:05;11.00;99.40
82782;DHT22;72517;47.260;11.422;2024-03-22T07:05:31;11.20;98.70
82782;DHT22;72517;47.260;11.422;2024-03-22T07:07:58;11.50;99.00
82782;DHT22;72517;47.260;11.422;2024-03-22T07:10:24;11.70;98.90
82782;DHT22;72517;47.260;11.422;2024-03-22T07:12:56;11.90;97.50
82782;DHT22;72517;47.260;11.422;2024-03-22T07:15:25;12.10;97.20
82782;DHT22;72517;47.260;11.422;2024-03-22T07:17:53;12.40;96.30
82782;DHT22;72517;47.260;11.422;2024-03-22T07:20:19;12.70;94.70
82782;DHT22;72517;47.260;11.422;2024-03-22T07:22:45;12.90;93.80
82782;DHT22;72517;47.260;11.422;2024-03-22T07:25:11;13.10;92.50
82782;DHT22;72517;47.260;11.422;2024-03-22T07:27:38;13.40;91.30
82782;DHT22;72517;47.260;11.422;2024-03-22T07:30:05;13.70;89.10
82782;DHT22;72517;47.260;11.422;2024-03-22T07:32:32;14.10;88.30
82782;DHT22;72517;47.260;11.422;2024-03-22T07:34:58;14.50;83.20
82782;DHT22;72517;47.260;11.422;2024-03-22T07:37:25;15.00;80.60
82782;DHT22;72517;47.260;11.422;2024-03-22T07:39:51;15.50;77.50
82782;DHT22;72517;47.260;11.422;2024-03-22T07:42:18;16.00;72.60
82782;DHT22;72517;47.260;11.422;2024-03-22T07:44:43;16.50;69.30
82782;DHT22;72517;47.260;11.422;2024-03-22T07:47:10;16.90;67.80
82782;DHT22;72517;47.260;11.422;2024-03-22T07:49:36;17.70;69.00
82782;DHT22;72517;47.260;11.422;2024-03-22T07:52:03;18.50;64.80
82782;DHT22;72517;47.260;11.422;2024-03-22T07:54:30;19.10;61.70
82782;DHT22;72517;47.260;11.422;2024-03-22T07:56:57;19.50;59.70
82782;DHT22;72517;47.260;11.422;2024-03-22T07:59:23;19.90;58.60
82782;DHT22;72517;47.260;11.422;2024-03-22T08:01:50;20.00;56.00
82782;DHT22;72517;47.260;11.422;2024-03-22T08:04:16;19.50;54.70
82782;DHT22;72517;47.260;11.422;2024-03-22T08:06:43;19.00;55.10
82782;DHT22;72517;47.260;11.422;2024-03-22T08:09:09;19.20;55.60
82782;DHT22;72517;47.260;11.422;2024-03-22T08:11:36;19.20;56.00
82782;DHT22;72517;47.260;11.422;2024-03-22T08:14:01;18.70;54.80
82782;DHT22;72517;47.260;11.422;2024-03-22T08:16:29;18.70;54.90
82782;DHT22;72517;47.260;11.422;2024-03-22T08:18:56;18.50;54.50
82782;DHT22;72517;47.260;11.422;2024-03-22T08:21:23;19.00;55.10
82782;DHT22;72517;47.260;11.422;2024-03-22T08:23:50;19.60;55.20
82782;DHT22;72517;47.260;11.422;2024-03-22T08:26:18;20.30;53.00
82782;DHT22;72517;47.260;11.422;2024-03-22T08:28:45;21.90;51.70
82782;DHT22;72517;47.260;11.422;2024-03-22T08:31:13;24.20;48.10
82782;DHT22;72517;47.260;11.422;2024-03-22T08:33:38;26.30;45.30
82782;DHT22;72517;47.260;11.422;2024-03-22T08:36:06;27.90;41.40
82782;DHT22;72517;47.260;11.422;2024-03-22T08:38:32;29.70;38.40
82782;DHT22;72517;47.260;11.422;2024-03-22T08:40:59;31.30;36.10
82782;DHT22;72517;47.260;11.422;2024-03-22T08:43:25;32.40;34.70
82782;DHT22;72517;47.260;11.422;2024-03-22T08:45:53;33.70;32.80
82782;DHT22;72517;47.260;11.422;2024-03-22T08:48:19;34.00;30.60
82782;DHT22;72517;47.260;11.422;2024-03-22T08:50:46;34.20;30.00
82782;DHT22;72517;47.260;11.422;2024-03-22T08:53:11;34.50;29.70
82782;DHT22;72517;47.260;11.422;2024-03-22T08:55:44;34.80;28.80
82782;DHT22;72517;47.260;11.422;2024-03-22T08:58:10;34.90;29.20
82782;DHT22;72517;47.260;11.422;2024-03-22T09:00:37;35.40;28.70
82782;DHT22;72517;47.260;11.422;2024-03-22T09:03:03;36.80;28.50
82782;DHT22;72517;47.260;11.422;2024-03-22T09:05:30;37.00;27.80
82782;DHT22;72517;47.260;11.422;2024-03-22T09:07:56;36.70;27.50
82782;DHT22;72517;47.260;11.422;2024-03-22T09:10:23;37.40;27.40
82782;DHT22;72517;47.260;11.422;2024-03-22T09:12:49;37.40;26.90
82782;DHT22;72517;47.260;11.422;2024-03-22T09:15:16;37.50;27.20
82782;DHT22;72517;47.260;11.422;2024-03-22T09:17:42;37.80;26.50
82782;DHT22;72517;47.260;11.422;2024-03-22T09:20:10;37.80;26.10
82782;DHT22;72517;47.260;11.422;2024-03-22T09:22:36;38.20;26.20
82782;DHT22;72517;47.260;11.422;2024-03-22T09:25:04;39.10;26.30
82782;DHT22;72517;47.260;11.422;2024-03-22T09:27:31;39.60;25.90
82782;DHT22;72517;47.260;11.422;2024-03-22T09:29:58;40.20;26.10
82782;DHT22;72517;47.260;11.422;2024-03-22T09:32:24;40.70;25.70
82782;DHT22;72517;47.260;11.422;2024-03-22T09:34:52;41.30;25.10
82782;DHT22;72517;47.260;11.422;2024-03-22T09:37:18;41.90;25.40
82782;DHT22;72517;47.260;11.422;2024-03-22T09:39:45;42.40;25.00
82782;DHT22;72517;47.260;11.422;2024-03-22T09:42:16;42.10;25.30
82782;DHT22;72517;47.260;11.422;2024-03-22T09:44:48;42.40;25.20
82782;DHT22;72517;47.260;11.422;2024-03-22T09:47:18;43.60;24.40
82782;DHT22;72517;47.260;11.422;2024-03-22T09:49:46;44.30;23.60
82782;DHT22;72517;47.260;11.422;2024-03-22T09:52:14;44.00;23.40
82782;DHT22;72517;47.260;11.422;2024-03-22T09:54:43;44.20;23.20
82782;DHT22;72517;47.260;11.422;2024-03-22T09:57:14;45.00;23.50
82782;DHT22;72517;47.260;11.422;2024-03-22T09:59:43;45.10;23.00
82782;DHT22;72517;47.260;11.422;2024-03-22T10:02:11;45.20;22.90
82782;DHT22;72517;47.260;11.422;2024-03-22T10:04:42;45.10;22.70
82782;DHT22;72517;47.260;11.422;2024-03-22T10:07:08;45.50;22.90
82782;DHT22;72517;47.260;11.422;2024-03-22T10:09:36;46.10;22.30
82782;DHT22;72517;47.260;11.422;2024-03-22T10:12:03;46.20;22.00
82782;DHT22;72517;47.260;11.422;2024-03-22T10:14:30;46.30;21.80
82782;DHT22;72517;47.260;11.422;2024-03-22T10:16:57;46.10;21.80
82782;DHT22;72517;47.260;11.422;2024-03-22T10:19:24;46.40;21.40
82782;DHT22;72517;47.260;11.422;2024-03-22T10:22:02;45.80;21.30
82782;DHT22;72517;47.260;11.422;2024-03-22T10:24:30;46.30;22.30
82782;DHT22;72517;47.260;11.422;2024-03-22T10:26:56;47.20;22.00
82782;DHT22;72517;47.260;11.422;2024-03-22T10:29:23;46.30;22.20
82782;DHT22;72517;47.260;11.422;2024-03-22T10:31:53;47.00;22.40
82782;DHT22;72517;47.260;11.422;2024-03-22T10:34:24;47.40;22.20
82782;DHT22;72517;47.260;11.422;2024-03-22T10:36:50;48.20;22.40
82782;DHT22;72517;47.260;11.422;2024-03-22T10:39:18;48.40;22.10
82782;DHT22;72517;47.260;11.422;2024-03-22T10:41:47;49.10;21.80
82782;DHT22;72517;47.260;11.422;2024-03-22T10:44:17;49.90;21.90
82782;DHT22;72517;47.260;11.422;2024-03-22T10:46:47;50.30;21.60
82782;DHT22;72517;47.260;11.422;2024-03-22T10:49:20;51.10;21.00
82782;DHT22;72517;47.260;11.422;2024-03-22T10:51:54;51.20;21.20
82782;DHT22;72517;47.260;11.422;2024-03-22T10:54:26;51.40;21.20
82782;DHT22;72517;47.260;11.422;2024-03-22T10:56:52;52.30;21.00
82782;DHT22;72517;47.260;11.422;2024-03-22T10:59:22;51.90;20.40
82782;DHT22;72517;47.260;11.422;2024-03-22T11:01:49;51.10;20.10
82782;DHT22;72517;47.260;11.422;2024-03-22T11:04:21;50.40;20.80
82782;DHT22;72517;47.260;11.422;2024-03-22T11:06:51;49.90;20.60
82782;DHT22;72517;47.260;11.422;2024-03-22T11:09:24;48.50;20.40
82782;DHT22;72517;47.260;11.422;2024-03-22T11:11:55;48.50;20.80
82782;DHT22;72517;47.260;11.422;2024-03-22T11:14:24;49.00;21.30
82782;DHT22;72517;47.260;11.422;2024-03-22T11:16:50;49.00;21.00
82782;DHT22;72517;47.260;11.422;2024-03-22T11:19:18;47.90;20.10
82782;DHT22;72517;47.260;11.422;2024-03-22T11:21:44;47.90;21.20
82782;DHT22;72517;47.260;11.422;2024-03-22T11:24:11;46.80;20.50
82782;DHT22;72517;47.260;11.422;2024-03-22T11:26:37;46.60;21.00
82782;DHT22;72517;47.260;11.422;2024-03-22T11:29:04;46.60;21.00
82782;DHT22;72517;47.260;11.422;2024-03-22T11:31:30;45.70;20.80
82782;DHT22;72517;47.260;11.422;2024-03-22T11:33:57;45.40;20.80
82782;DHT22;72517;47.260;11.422;2024-03-22T11:36:23;45.10;21.20
82782;DHT22;72517;47.260;11.422;2024-03-22T11:38:50;45.60;20.80
82782;DHT22;72517;47.260;11.422;2024-03-22T11:41:21;45.20;20.80
82782;DHT22;72517;47.260;11.422;2024-03-22T11:43:50;45.00;21.00
82782;DHT22;72517;47.260;11.422;2024-03-22T11:46:17;45.10;21.00
82782;DHT22;72517;47.260;11.422;2024-03-22T11:48:44;45.20;20.90
82782;DHT22;72517;47.260;11.422;2024-03-22T11:51:10;45.20;20.90
82782;DHT22;72517;47.260;11.422;2024-03-22T11:53:37;45.70;20.80
82782;DHT22;72517;47.260;11.422;2024-03-22T11:56:04;45.30;21.10
82782;DHT22;72517;47.260;11.422;2024-03-22T11:58:31;44.90;21.50
82782;DHT22;72517;47.260;11.422;2024-03-22T12:00:57;44.90;21.60
82782;DHT22;72517;47.260;11.422;2024-03-22T12:03:25;44.80;21.00
82782;DHT22;72517;47.260;11.422;2024-03-22T12:05:54;44.50;20.90
82782;DHT22;72517;47.260;11.422;2024-03-22T12:08:21;44.50;21.50
82782;DHT22;72517;47.260;11.422;2024-03-22T12:10:47;43.40;21.10
82782;DHT22;72517;47.260;11.422;2024-03-22T12:13:14;42.80;21.30
82782;DHT22;72517;47.260;11.422;2024-03-22T12:15:40;41.80;21.60
82782;DHT22;72517;47.260;11.422;2024-03-22T12:18:07;41.00;22.50
82782;DHT22;72517;47.260;11.422;2024-03-22T12:20:33;39.90;22.50
82782;DHT22;72517;47.260;11.422;2024-03-22T12:22:59;38.30;23.00
82782;DHT22;72517;47.260;11.422;2024-03-22T12:25:25;37.00;22.70
82782;DHT22;72517;47.260;11.422;2024-03-22T12:27:52;36.00;23.60
82782;DHT22;72517;47.260;11.422;2024-03-22T12:30:18;35.30;24.30
82782;DHT22;72517;47.260;11.422;2024-03-22T12:32:45;33.80;24.10
82782;DHT22;72517;47.260;11.422;2024-03-22T12:35:11;32.80;24.60
82782;DHT22;72517;47.260;11.422;2024-03-22T12:37:38;31.80;24.90
82782;DHT22;72517;47.260;11.422;2024-03-22T12:40:05;31.00;25.40
82782;DHT22;72517;47.260;11.422;2024-03-22T12:42:33;30.20;26.10
82782;DHT22;72517;47.260;11.422;2024-03-22T12:44:59;29.60;26.40
82782;DHT22;72517;47.260;11.422;2024-03-22T12:47:26;29.00;26.90
82782;DHT22;72517;47.260;11.422;2024-03-22T12:49:52;28.50;27.50
82782;DHT22;72517;47.260;11.422;2024-03-22T12:52:19;28.10;27.00
82782;DHT22;72517;47.260;11.422;2024-03-22T12:54:45;27.80;27.60
82782;DHT22;72517;47.260;11.422;2024-03-22T12:57:12;27.30;28.10
82782;DHT22;72517;47.260;11.422;2024-03-22T12:59:38;26.90;28.10
82782;DHT22;72517;47.260;11.422;2024-03-22T13:02:05;26.60;28.10
82782;DHT22;72517;47.260;11.422;2024-03-22T13:04:31;26.60;28.00
82782;DHT22;72517;47.260;11.422;2024-03-22T13:06:58;26.40;27.90
82782;DHT22;72517;47.260;11.422;2024-03-22T13:09:24;26.20;27.40
82782;DHT22;72517;47.260;11.422;2024-03-22T13:11:51;26.10;27.60
82782;DHT22;72517;47.260;11.422;2024-03-22T13:14:17;25.50;27.80
82782;DHT22;72517;47.260;11.422;2024-03-22T13:16:46;25.60;28.10
82782;DHT22;72517;47.260;11.422;2024-03-22T13:19:12;25.40;28.80
82782;DHT22;72517;47.260;11.422;2024-03-22T13:21:40;25.30;29.40
82782;DHT22;72517;47.260;11.422;2024-03-22T13:24:06;25.00;29.20
82782;DHT22;72517;47.260;11.422;2024-03-22T13:26:33;24.70;29.10
82782;DHT22;72517;47.260;11.422;2024-03-22T13:28:59;24.50;29.30
82782;DHT22;72517;47.260;11.422;2024-03-22T13:31:26;24.60;30.00
82782;DHT22;72517;47.260;11.422;2024-03-22T13:33:52;24.60;30.60
82782;DHT22;72517;47.260;11.422;2024-03-22T13:36:18;24.60;29.00
82782;DHT22;72517;47.260;11.422;2024-03-22T13:38:44;24.50;28.90
82782;DHT22;72517;47.260;11.422;2024-03-22T13:41:11;24.50;29.40
82782;DHT22;72517;47.260;11.422;2024-03-22T13:43:37;24.40;28.90
82782;DHT22;72517;47.260;11.422;2024-03-22T13:46:05;24.40;29.30
82782;DHT22;72517;47.260;11.422;2024-03-22T13:48:31;24.40;29.70
82782;DHT22;72517;47.260;11.422;2024-03-22T13:50:58;24.30;29.00
82782;DHT22;72517;47.260;11.422;2024-03-22T13:53:24;24.30;29.00
82782;DHT22;72517;47.260;11.422;2024-03-22T13:55:51;24.40;28.30
82782;DHT22;72517;47.260;11.422;2024-03-22T13:58:18;24.30;28.20
82782;DHT22;72517;47.260;11.422;2024-03-22T14:00:45;24.20;27.80
82782;DHT22;72517;47.260;11.422;2024-03-22T14:03:11;24.10;27.90
82782;DHT22;72517;47.260;11.422;2024-03-22T14:05:38;24.00;28.10
82782;DHT22;72517;47.260;11.422;2024-03-22T14:08:04;24.10;28.00
82782;DHT22;72517;47.260;11.422;2024-03-22T14:10:31;24.10;28.80
82782;DHT22;72517;47.260;11.422;2024-03-22T14:12:57;24.00;27.40
82782;DHT22;72517;47.260;11.422;2024-03-22T14:15:25;24.00;28.00
82782;DHT22;72517;47.260;11.422;2024-03-22T14:17:52;24.10;28.00
82782;DHT22;72517;47.260;11.422;2024-03-22T14:20:19;24.20;28.50
82782;DHT22;72517;47.260;11.422;2024-03-22T14:22:46;24.20;28.30
82782;DHT22;72517;47.260;11.422;2024-03-22T14:25:13;24.30;28.90
82782;DHT22;72517;47.260;11.422;2024-03-22T14:27:39;24.30;29.20
82782;DHT22;72517;47.260;11.422;2024-03-22T14:30:10;24.20;28.90
82782;DHT22;72517;47.260;11.422;2024-03-22T14:32:38;24.10;28.00
82782;DHT22;72517;47.260;11.422;2024-03-22T14:35:06;23.90;28.00
82782;DHT22;72517;47.260;11.422;2024-03-22T14:37:32;23.50;27.90
82782;DHT22;72517;47.260;11.422;2024-03-22T14:39:59;23.40;28.20
82782;DHT22;72517;47.260;11.422;2024-03-22T14:42:25;23.30;28.40
82782;DHT22;72517;47.260;11.422;2024-03-22T14:44:52;23.20;28.40
82782;DHT22;72517;47.260;11.422;2024-03-22T14:47:21;23.00;28.90
82782;DHT22;72517;47.260;11.422;2024-03-22T14:49:50;22.90;28.50
82782;DHT22;72517;47.260;11.422;2024-03-22T14:52:17;22.80;29.00
82782;DHT22;72517;47.260;11.422;2024-03-22T14:54:44;22.70;29.10
82782;DHT22;72517;47.260;11.422;2024-03-22T14:57:10;22.70;29.20
82782;DHT22;72517;47.260;11.422;2024-03-22T14:59:37;22.70;29.40
82782;DHT22;72517;47.260;11.422;2024-03-22T15:02:02;22.70;29.70
82782;DHT22;72517;47.260;11.422;2024-03-22T15:04:29;22.60;30.10
82782;DHT22;72517;47.260;11.422;2024-03-22T15:06:55;22.50;28.90
82782;DHT22;72517;47.260;11.422;2024-03-22T15:09:22;22.40;30.50
82782;DHT22;72517;47.260;11.422;2024-03-22T15:11:49;22.30;29.80
82782;DHT22;72517;47.260;11.422;2024-03-22T15:14:17;22.10;30.00
82782;DHT22;72517;47.260;11.422;2024-03-22T15:16:42;22.20;30.60
82782;DHT22;72517;47.260;11.422;2024-03-22T15:19:10;22.00;30.00
82782;DHT22;72517;47.260;11.422;2024-03-22T15:21:36;21.90;30.10